createdAt,value
2019-03-04T00:00:20.439Z,85.03
2019-03-04T00:01:20.427Z,85.78
2019-03-04T00:02:20.423Z,85.54
2019-03-04T00:03:20.405Z,85.03
2019-03-04T00:04:20.407Z,84.52
2019-03-04T00:05:20.383Z,84.00
2019-03-04T00:06:20.375Z,83.80
2019-03-04T00:07:20.370Z,84.31
2019-03-04T00:08:20.356Z,84.61
2019-03-04T00:09:20.350Z,84.92
2019-03-04T00:10:20.332Z,85.03
2019-03-04T00:11:20.322Z,84.72
2019-03-04T00:12:20.309Z,84.00
2019-03-04T00:13:20.313Z,84.72
2019-03-04T00:14:20.298Z,84.10
2019-03-04T00:15:20.278Z,84.52
2019-03-04T00:16:20.270Z,84.52
2019-03-04T00:17:20.255Z,84.31
2019-03-04T00:18:20.245Z,85.13
2019-03-04T00:19:20.260Z,84.92
2019-03-04T00:20:20.224Z,85.47
2019-03-04T00:21:20.215Z,85.38
2019-03-04T00:22:20.202Z,85.78
2019-03-04T00:23:20.191Z,85.27
2019-03-04T00:24:20.183Z,85.47
2019-03-04T00:25:20.179Z,85.06
2019-03-04T00:26:20.163Z,85.27
2019-03-04T00:27:20.151Z,85.58
2019-03-04T00:28:20.138Z,85.27
2019-03-04T00:29:20.127Z,85.47
2019-03-04T00:30:20.124Z,84.86
2019-03-04T00:31:20.105Z,85.27
2019-03-04T00:32:20.115Z,85.00
2019-03-04T00:33:20.085Z,85.06
2019-03-04T00:34:20.073Z,83.94
2019-03-04T00:35:20.074Z,84.86
2019-03-04T00:36:20.053Z,84.76
2019-03-04T00:37:20.041Z,85.17
2019-03-04T00:38:20.030Z,85.17
2019-03-04T00:39:20.019Z,84.76
2019-03-04T00:40:20.017Z,84.55
2019-03-04T00:41:20.004Z,85.17
2019-03-04T00:42:19.986Z,85.27
2019-03-04T00:43:19.975Z,84.18
2019-03-04T00:44:19.969Z,83.53
2019-03-04T00:45:19.967Z,84.34
2019-03-04T00:46:19.978Z,84.14
2019-03-04T00:47:19.935Z,83.94
2019-03-04T00:48:19.922Z,83.53
2019-03-04T00:49:19.913Z,84.14
2019-03-04T00:50:19.910Z,83.63
2019-03-04T00:51:19.897Z,84.04
2019-03-04T00:52:19.884Z,84.86
2019-03-04T00:53:19.870Z,84.39
2019-03-04T00:54:19.861Z,84.14
2019-03-04T00:55:19.857Z,84.34
2019-03-04T00:56:19.837Z,83.12
2019-03-04T00:57:19.827Z,83.63
2019-03-04T00:58:19.816Z,83.94
2019-03-04T00:59:19.806Z,83.94
2019-03-04T01:00:19.802Z,83.94
2019-03-04T01:01:19.784Z,83.53
2019-03-04T01:02:19.772Z,83.01
2019-03-04T01:03:19.762Z,83.15
2019-03-04T01:04:19.754Z,83.94
2019-03-04T01:05:19.749Z,83.77
2019-03-04T01:06:19.730Z,83.22
2019-03-04T01:07:19.718Z,83.56
2019-03-04T01:08:19.707Z,83.87
2019-03-04T01:09:19.696Z,84.08
2019-03-04T01:10:19.697Z,84.18
2019-03-04T01:11:19.677Z,84.25
2019-03-04T01:12:19.666Z,84.08
2019-03-04T01:13:19.653Z,83.77
2019-03-04T01:14:19.643Z,82.43
2019-03-04T01:15:19.641Z,82.60
2019-03-04T01:16:19.622Z,82.09
2019-03-04T01:17:19.612Z,82.19
2019-03-04T01:18:19.601Z,81.68
2019-03-04T01:19:19.593Z,81.78
2019-03-04T01:20:19.591Z,81.68
2019-03-04T01:21:19.569Z,82.70
2019-03-04T01:22:19.557Z,82.19
2019-03-04T01:23:19.546Z,82.40
2019-03-04T01:24:19.536Z,82.50
2019-03-04T01:25:19.551Z,83.12
2019-03-04T01:26:19.518Z,83.22
2019-03-04T01:27:19.503Z,81.78
2019-03-04T01:28:19.493Z,82.19
2019-03-04T01:29:19.482Z,81.78
2019-03-04T01:30:19.472Z,81.74
2019-03-04T01:31:19.471Z,82.97
2019-03-04T01:32:19.451Z,82.67
2019-03-04T01:33:19.439Z,82.97
2019-03-04T01:34:19.428Z,81.57
2019-03-04T01:35:19.417Z,81.85
2019-03-04T01:36:19.417Z,82.67
2019-03-04T01:37:19.397Z,82.19
2019-03-04T01:38:19.384Z,82.50
2019-03-04T01:39:19.379Z,81.99
2019-03-04T01:40:19.365Z,81.88
2019-03-04T01:41:19.366Z,81.85
2019-03-04T01:42:19.344Z,81.64
2019-03-04T01:43:19.332Z,81.95
2019-03-04T01:44:19.324Z,81.43
2019-03-04T01:45:19.325Z,81.95
2019-03-04T01:46:19.308Z,81.74
2019-03-04T01:47:19.290Z,81.64
2019-03-04T01:48:19.278Z,81.78
2019-03-04T01:49:19.270Z,81.43
2019-03-04T01:50:19.265Z,81.74
2019-03-04T01:51:19.260Z,81.64
2019-03-04T01:52:19.242Z,80.31
2019-03-04T01:53:19.228Z,79.90
2019-03-04T01:54:19.215Z,80.21
2019-03-04T01:55:19.211Z,80.41
2019-03-04T01:56:19.201Z,80.21
2019-03-04T01:57:19.184Z,80.92
2019-03-04T01:58:19.171Z,80.21
2019-03-04T01:59:19.163Z,80.62
2019-03-04T02:00:19.156Z,81.57
2019-03-04T02:01:19.171Z,80.65
2019-03-04T02:02:19.130Z,81.37
2019-03-04T02:03:19.118Z,81.78
2019-03-04T02:04:19.108Z,81.48
2019-03-04T02:05:19.096Z,82.23
2019-03-04T02:06:19.087Z,82.43
2019-03-04T02:07:19.087Z,82.54
2019-03-04T02:08:19.067Z,82.23
2019-03-04T02:09:19.053Z,82.43
2019-03-04T02:10:19.043Z,82.64
2019-03-04T02:11:19.032Z,82.33
2019-03-04T02:12:19.030Z,82.84
2019-03-04T02:13:19.010Z,81.92
2019-03-04T02:14:19.007Z,82.33
2019-03-04T02:15:18.994Z,82.17
2019-03-04T02:16:18.978Z,82.47
2019-03-04T02:17:18.984Z,82.27
2019-03-04T02:18:18.957Z,82.78
2019-03-04T02:19:18.948Z,82.06
2019-03-04T02:20:18.939Z,82.99
2019-03-04T02:21:18.924Z,83.13
2019-03-04T02:22:18.922Z,83.03
2019-03-04T02:23:18.906Z,83.44
2019-03-04T02:24:18.896Z,83.13
2019-03-04T02:25:18.882Z,83.33
2019-03-04T02:26:18.872Z,82.71
2019-03-04T02:27:18.869Z,83.23
2019-03-04T02:28:18.849Z,83.44
2019-03-04T02:29:18.847Z,83.85
2019-03-04T02:30:18.838Z,83.23
2019-03-04T02:31:18.823Z,83.95
2019-03-04T02:32:18.830Z,83.89
2019-03-04T02:33:18.795Z,83.64
2019-03-04T02:34:18.785Z,84.30
2019-03-04T02:35:18.782Z,84.36
2019-03-04T02:36:18.762Z,84.30
2019-03-04T02:37:18.766Z,83.95
2019-03-04T02:38:18.753Z,83.99
2019-03-04T02:39:18.733Z,83.95
2019-03-04T02:40:18.736Z,84.26
2019-03-04T02:41:18.715Z,84.05
2019-03-04T02:42:18.707Z,83.85
2019-03-04T02:43:18.690Z,83.03
2019-03-04T02:44:18.674Z,83.44
2019-03-04T02:45:18.684Z,83.33
2019-03-04T02:46:18.655Z,84.16
2019-03-04T02:47:18.655Z,83.64
2019-03-04T02:48:18.641Z,83.89
2019-03-04T02:49:18.626Z,84.26
2019-03-04T02:50:18.613Z,84.16
2019-03-04T02:51:18.600Z,83.85
2019-03-04T02:52:18.598Z,83.23
2019-03-04T02:53:18.589Z,82.92
2019-03-04T02:54:18.568Z,83.33
2019-03-04T02:55:18.573Z,82.92
2019-03-04T02:56:18.546Z,82.92
2019-03-04T02:57:18.544Z,83.23
2019-03-04T02:58:18.525Z,82.92
2019-03-04T02:59:18.513Z,82.51
2019-03-04T03:00:18.550Z,83.03
2019-03-04T03:01:18.497Z,83.23
2019-03-04T03:02:18.491Z,83.33
2019-03-04T03:03:18.478Z,83.68
2019-03-04T03:04:18.465Z,83.44
2019-03-04T03:05:18.497Z,83.13
2019-03-04T03:06:18.441Z,83.06
2019-03-04T03:07:18.437Z,83.06
2019-03-04T03:08:18.425Z,82.86
2019-03-04T03:09:18.412Z,83.33
2019-03-04T03:10:18.396Z,82.82
2019-03-04T03:11:18.396Z,83.33
2019-03-04T03:12:18.385Z,82.65
2019-03-04T03:13:18.367Z,83.13
2019-03-04T03:14:18.359Z,82.71
2019-03-04T03:15:18.344Z,82.82
2019-03-04T03:16:18.332Z,82.82
2019-03-04T03:17:18.331Z,83.03
2019-03-04T03:18:18.310Z,82.92
2019-03-04T03:19:18.309Z,82.92
2019-03-04T03:20:18.296Z,83.03
2019-03-04T03:21:18.277Z,83.27
2019-03-04T03:22:18.274Z,83.27
2019-03-04T03:23:18.255Z,83.89
2019-03-04T03:24:18.256Z,83.99
2019-03-04T03:25:18.235Z,83.89
2019-03-04T03:26:18.225Z,84.30
2019-03-04T03:27:18.238Z,84.03
2019-03-04T03:28:18.203Z,83.83
2019-03-04T03:29:18.192Z,84.44
2019-03-04T03:30:18.201Z,84.23
2019-03-04T03:31:18.185Z,84.64
2019-03-04T03:32:18.161Z,84.13
2019-03-04T03:33:18.169Z,84.44
2019-03-04T03:34:18.158Z,84.09
2019-03-04T03:35:18.131Z,84.54
2019-03-04T03:36:18.117Z,84.23
2019-03-04T03:37:18.105Z,84.54
2019-03-04T03:38:18.102Z,84.95
2019-03-04T03:39:18.083Z,84.75
2019-03-04T03:40:18.118Z,84.23
2019-03-04T03:41:18.069Z,84.34
2019-03-04T03:42:19.113Z,84.95
2019-03-04T03:43:18.060Z,84.85
2019-03-04T03:44:18.030Z,84.23
2019-03-04T03:45:18.023Z,84.95
2019-03-04T03:46:18.010Z,84.85
2019-03-04T03:47:17.996Z,84.75
2019-03-04T03:48:17.996Z,85.06
2019-03-04T03:49:17.974Z,84.75
2019-03-04T03:50:17.977Z,85.26
2019-03-04T03:51:17.993Z,85.30
2019-03-04T03:52:17.942Z,85.36
2019-03-04T03:53:17.948Z,84.95
2019-03-04T03:54:17.921Z,84.64
2019-03-04T03:55:17.912Z,85.26
2019-03-04T03:56:17.900Z,84.95
2019-03-04T03:57:17.887Z,85.06
2019-03-04T03:58:17.889Z,84.95
2019-03-04T03:59:17.868Z,85.06
2019-03-04T04:00:17.858Z,85.06
2019-03-04T04:01:17.846Z,84.95
2019-03-04T04:02:17.838Z,84.95
2019-03-04T04:03:17.835Z,85.16
2019-03-04T04:04:17.816Z,84.85
2019-03-04T04:05:17.807Z,85.36
2019-03-04T04:06:17.791Z,85.06
2019-03-04T04:07:17.780Z,85.06
2019-03-04T04:08:17.781Z,85.06
2019-03-04T04:09:17.759Z,84.40
2019-03-04T04:10:17.755Z,84.40
2019-03-04T04:11:17.738Z,84.20
2019-03-04T04:12:17.734Z,84.09
2019-03-04T04:13:17.725Z,84.30
2019-03-04T04:14:17.718Z,84.30
2019-03-04T04:15:17.695Z,83.99
2019-03-04T04:16:17.684Z,84.16
2019-03-04T04:17:17.672Z,83.89
2019-03-04T04:18:17.674Z,83.85
2019-03-04T04:19:17.651Z,84.09
2019-03-04T04:20:17.648Z,83.75
2019-03-04T04:21:17.629Z,84.30
2019-03-04T04:22:17.617Z,84.40
2019-03-04T04:23:17.621Z,84.40
2019-03-04T04:24:17.598Z,84.30
2019-03-04T04:25:17.586Z,84.05
2019-03-04T04:26:17.574Z,83.78
2019-03-04T04:27:17.570Z,83.89
2019-03-04T04:28:17.562Z,83.75
2019-03-04T04:29:17.543Z,84.20
2019-03-04T04:30:17.535Z,84.71
2019-03-04T04:31:17.521Z,83.89
2019-03-04T04:32:17.509Z,83.75
2019-03-04T04:33:17.508Z,83.78
2019-03-04T04:34:17.490Z,83.44
2019-03-04T04:35:17.477Z,83.19
2019-03-04T04:36:17.467Z,83.23
2019-03-04T04:37:17.458Z,83.54
2019-03-04T04:38:17.455Z,83.64
2019-03-04T04:39:17.444Z,84.16
2019-03-04T04:40:17.423Z,83.95
2019-03-04T04:41:17.412Z,84.26
2019-03-04T04:42:17.404Z,83.99
2019-03-04T04:43:17.403Z,83.78
2019-03-04T04:44:17.380Z,83.89
2019-03-04T04:45:17.369Z,84.16
2019-03-04T04:46:17.358Z,84.05
2019-03-04T04:47:17.348Z,83.75
2019-03-04T04:48:17.346Z,83.95
2019-03-04T04:49:17.326Z,83.95
2019-03-04T04:50:17.315Z,83.33
2019-03-04T04:51:17.304Z,83.75
2019-03-04T04:52:17.293Z,83.23
2019-03-04T04:53:17.291Z,83.13
2019-03-04T04:54:17.271Z,83.09
2019-03-04T04:55:17.261Z,83.95
2019-03-04T04:56:17.253Z,83.95
2019-03-04T04:57:17.239Z,83.85
2019-03-04T04:58:17.237Z,84.26
2019-03-04T04:59:17.219Z,83.75
2019-03-04T05:00:17.207Z,83.03
2019-03-04T05:01:17.198Z,83.85
2019-03-04T05:02:17.191Z,84.05
2019-03-04T05:03:17.185Z,84.05
2019-03-04T05:04:17.168Z,83.75
2019-03-04T05:05:17.154Z,84.56
2019-03-04T05:06:17.141Z,83.33
2019-03-04T05:07:17.136Z,83.23
2019-03-04T05:08:17.129Z,84.05
2019-03-04T05:09:17.110Z,83.33
2019-03-04T05:10:17.099Z,83.81
2019-03-04T05:11:17.088Z,83.85
2019-03-04T05:12:17.080Z,84.16
2019-03-04T05:13:17.074Z,83.85
2019-03-04T05:14:17.056Z,84.26
2019-03-04T05:15:17.047Z,83.85
2019-03-04T05:16:17.035Z,83.64
2019-03-04T05:17:17.024Z,83.33
2019-03-04T05:18:17.022Z,83.09
2019-03-04T05:19:17.002Z,83.70
2019-03-04T05:20:16.996Z,84.12
2019-03-04T05:21:16.981Z,83.91
2019-03-04T05:22:16.972Z,84.84
2019-03-04T05:23:16.970Z,84.94
2019-03-04T05:24:16.952Z,83.91
2019-03-04T05:25:16.944Z,85.18
2019-03-04T05:26:16.928Z,85.39
2019-03-04T05:27:16.930Z,84.26
2019-03-04T05:28:16.914Z,84.77
2019-03-04T05:29:16.895Z,85.46
2019-03-04T05:30:16.886Z,85.86
2019-03-04T05:31:16.875Z,86.21
2019-03-04T05:32:16.862Z,85.60
2019-03-04T05:33:16.860Z,85.90
2019-03-04T05:34:16.840Z,87.96
2019-03-04T05:35:16.834Z,85.60
2019-03-04T05:36:16.829Z,86.62
2019-03-04T05:37:16.813Z,87.13
2019-03-04T05:38:16.807Z,86.93
2019-03-04T05:39:16.785Z,86.52
2019-03-04T05:40:16.776Z,86.52
2019-03-04T05:41:16.767Z,87.13
2019-03-04T05:42:16.755Z,87.04
2019-03-04T05:43:16.774Z,86.52
2019-03-04T05:44:16.733Z,86.52
2019-03-04T05:45:16.721Z,86.62
2019-03-04T05:46:16.711Z,86.42
2019-03-04T05:47:16.706Z,86.52
2019-03-04T05:48:16.689Z,86.72
2019-03-04T05:49:16.693Z,86.83
2019-03-04T05:50:16.670Z,87.04
2019-03-04T05:51:16.657Z,85.08
2019-03-04T05:52:16.645Z,85.60
2019-03-04T05:53:16.635Z,86.52
2019-03-04T05:54:16.637Z,85.66
2019-03-04T05:55:16.614Z,85.97
2019-03-04T05:56:16.605Z,86.17
2019-03-04T05:57:16.592Z,85.46
2019-03-04T05:58:16.581Z,86.17
2019-03-04T05:59:19.687Z,85.97
2019-03-04T06:00:16.568Z,86.38
2019-03-04T06:01:16.549Z,85.04
2019-03-04T06:02:16.538Z,85.76
2019-03-04T06:03:16.528Z,85.04
2019-03-04T06:04:16.528Z,84.80
2019-03-04T06:05:16.508Z,85.41
2019-03-04T06:06:16.501Z,85.21
2019-03-04T06:07:16.484Z,85.00
2019-03-04T06:08:16.472Z,84.49
2019-03-04T06:09:16.470Z,84.69
2019-03-04T06:10:16.459Z,85.11
2019-03-04T06:11:16.440Z,84.59
2019-03-04T06:12:16.430Z,84.49
2019-03-04T06:13:16.420Z,84.63
2019-03-04T06:14:16.418Z,85.11
2019-03-04T06:15:16.399Z,84.59
2019-03-04T06:16:16.389Z,83.98
2019-03-04T06:17:16.376Z,83.77
2019-03-04T06:18:16.367Z,84.25
2019-03-04T06:19:16.363Z,83.67
2019-03-04T06:20:16.346Z,84.76
2019-03-04T06:21:16.334Z,84.90
2019-03-04T06:22:16.324Z,83.94
2019-03-04T06:23:16.313Z,84.90
2019-03-04T06:24:16.336Z,84.66
2019-03-04T06:25:16.292Z,85.62
2019-03-04T06:26:16.280Z,84.76
2019-03-04T06:27:16.271Z,84.45
2019-03-04T06:28:16.260Z,83.83
2019-03-04T06:29:16.258Z,83.94
2019-03-04T06:30:16.237Z,83.73
2019-03-04T06:31:16.227Z,84.04
2019-03-04T06:32:16.217Z,84.14
2019-03-04T06:33:16.207Z,83.73
2019-03-04T06:34:16.204Z,84.25
2019-03-04T06:35:16.190Z,83.53
2019-03-04T06:36:16.174Z,82.91
2019-03-04T06:37:16.162Z,83.32
2019-03-04T06:38:16.153Z,82.81
2019-03-04T06:39:16.152Z,83.12
2019-03-04T06:40:16.134Z,82.40
2019-03-04T06:41:16.120Z,82.26
2019-03-04T06:42:16.111Z,83.18
2019-03-04T06:43:16.100Z,82.46
2019-03-04T06:44:16.096Z,82.26
2019-03-04T06:45:16.079Z,81.85
2019-03-04T06:46:16.070Z,82.19
2019-03-04T06:47:16.056Z,81.64
2019-03-04T06:48:16.046Z,81.85
2019-03-04T06:49:16.043Z,82.67
2019-03-04T06:50:16.024Z,83.07
2019-03-04T06:51:16.013Z,81.74
2019-03-04T06:52:16.003Z,81.74
2019-03-04T06:53:15.991Z,81.54
2019-03-04T06:54:15.989Z,81.95
2019-03-04T06:55:15.970Z,82.56
2019-03-04T06:56:15.960Z,81.74
2019-03-04T06:57:15.949Z,81.64
2019-03-04T06:58:15.939Z,81.85
2019-03-04T06:59:15.937Z,82.05
2019-03-04T07:00:15.917Z,82.36
2019-03-04T07:01:15.909Z,83.18
2019-03-04T07:02:15.896Z,81.85
2019-03-04T07:03:15.885Z,81.43
2019-03-04T07:04:15.923Z,82.36
2019-03-04T07:05:15.863Z,83.28
2019-03-04T07:06:15.853Z,84.10
2019-03-04T07:07:15.843Z,83.59
2019-03-04T07:08:15.872Z,82.87
2019-03-04T07:09:15.823Z,81.74
2019-03-04T07:10:15.819Z,82.05
2019-03-04T07:11:15.801Z,82.56
2019-03-04T07:12:15.793Z,82.36
2019-03-04T07:13:15.779Z,82.26
2019-03-04T07:14:15.768Z,81.64
2019-03-04T07:15:15.767Z,81.85
2019-03-04T07:16:15.749Z,82.67
2019-03-04T07:17:15.737Z,82.67
2019-03-04T07:18:15.726Z,83.18
2019-03-04T07:19:15.715Z,82.05
2019-03-04T07:20:15.713Z,81.23
2019-03-04T07:21:15.694Z,81.81
2019-03-04T07:22:15.685Z,81.74
2019-03-04T07:23:15.674Z,81.64
2019-03-04T07:24:15.661Z,81.71
2019-03-04T07:25:15.662Z,81.71
2019-03-04T07:26:15.644Z,81.71
2019-03-04T07:27:15.630Z,81.50
2019-03-04T07:28:15.618Z,81.50
2019-03-04T07:29:15.607Z,81.50
2019-03-04T07:30:15.608Z,80.78
2019-03-04T07:31:15.588Z,80.99
2019-03-04T07:32:15.578Z,80.37
2019-03-04T07:33:15.565Z,81.57
2019-03-04T07:34:15.556Z,80.95
2019-03-04T07:35:15.553Z,80.13
2019-03-04T07:36:15.532Z,80.03
2019-03-04T07:37:15.522Z,79.72
2019-03-04T07:38:15.515Z,79.41
2019-03-04T07:39:15.504Z,78.70
2019-03-04T07:40:16.470Z,78.59
2019-03-04T07:41:15.481Z,79.11
2019-03-04T07:42:15.468Z,80.40
2019-03-04T07:43:15.458Z,78.97
2019-03-04T07:44:15.448Z,78.45
2019-03-04T07:45:15.449Z,78.66
2019-03-04T07:46:15.462Z,78.35
2019-03-04T07:47:15.416Z,78.05
2019-03-04T07:48:15.403Z,78.35
2019-03-04T07:49:15.405Z,78.05
2019-03-04T07:50:15.393Z,77.94
2019-03-04T07:51:15.371Z,77.23
2019-03-04T07:52:15.361Z,78.56
2019-03-04T07:53:15.354Z,77.23
2019-03-04T07:54:15.338Z,77.23
2019-03-04T07:55:15.335Z,77.43
2019-03-04T07:56:15.321Z,76.61
2019-03-04T07:57:15.308Z,77.23
2019-03-04T07:58:15.296Z,77.50
2019-03-04T07:59:15.283Z,77.12
2019-03-04T08:00:15.285Z,75.99
2019-03-04T08:01:15.261Z,76.27
2019-03-04T08:02:15.252Z,76.27
2019-03-04T08:03:15.262Z,76.57
2019-03-04T08:04:15.231Z,77.09
2019-03-04T08:05:15.228Z,76.57
2019-03-04T08:06:15.209Z,77.09
2019-03-04T08:07:15.198Z,76.27
2019-03-04T08:08:15.188Z,76.68
2019-03-04T08:09:15.181Z,76.47
2019-03-04T08:10:15.173Z,75.76
2019-03-04T08:11:15.154Z,75.04
2019-03-04T08:12:15.143Z,76.27
2019-03-04T08:13:15.134Z,76.98
2019-03-04T08:14:15.120Z,77.19
2019-03-04T08:15:15.121Z,75.86
2019-03-04T08:16:15.099Z,76.68
2019-03-04T08:17:15.088Z,75.35
2019-03-04T08:18:15.079Z,75.55
2019-03-04T08:19:15.065Z,75.24
2019-03-04T08:20:15.088Z,76.47
2019-03-04T08:21:15.042Z,76.68
2019-03-04T08:22:15.031Z,76.57
2019-03-04T08:23:15.021Z,76.88
2019-03-04T08:24:15.011Z,75.86
2019-03-04T08:25:15.000Z,76.27
2019-03-04T08:26:14.996Z,76.27
2019-03-04T08:27:14.976Z,75.45
2019-03-04T08:28:14.966Z,75.45
2019-03-04T08:29:14.978Z,76.98
2019-03-04T08:30:14.944Z,74.39
2019-03-04T08:31:14.942Z,75.04
2019-03-04T08:32:14.921Z,75.21
2019-03-04T08:33:14.911Z,75.72
2019-03-04T08:34:14.899Z,75.10
2019-03-04T08:35:14.895Z,75.10
2019-03-04T08:36:14.888Z,75.42
2019-03-04T08:37:14.864Z,75.52
2019-03-04T08:38:14.854Z,76.34
2019-03-04T08:39:14.844Z,76.03
2019-03-04T08:40:14.834Z,75.21
2019-03-04T08:41:14.833Z,75.99
2019-03-04T08:42:14.810Z,75.99
2019-03-04T08:43:14.799Z,75.99
2019-03-04T08:44:14.789Z,75.65
2019-03-04T08:45:14.775Z,76.06
2019-03-04T08:46:14.773Z,74.80
2019-03-04T08:47:14.771Z,74.63
2019-03-04T08:48:14.748Z,74.18
2019-03-04T08:49:14.730Z,73.88
2019-03-04T08:50:14.722Z,74.39
2019-03-04T08:51:14.716Z,74.08
2019-03-04T08:52:14.705Z,73.84
2019-03-04T08:53:14.689Z,71.91
2019-03-04T08:54:14.681Z,72.82
2019-03-04T08:55:14.664Z,73.57
2019-03-04T08:56:14.662Z,73.88
2019-03-04T08:57:14.643Z,73.27
2019-03-04T08:58:14.632Z,74.18
2019-03-04T08:59:14.619Z,73.84
2019-03-04T09:00:14.609Z,73.68
2019-03-04T09:01:14.608Z,73.36
2019-03-04T09:02:14.588Z,73.68
2019-03-04T09:03:14.579Z,73.77
2019-03-04T09:04:14.564Z,73.77
2019-03-04T09:05:14.557Z,73.98
2019-03-04T09:06:14.552Z,74.59
2019-03-04T09:07:14.535Z,73.36
2019-03-04T09:08:14.526Z,73.27
2019-03-04T09:09:14.512Z,72.92
2019-03-04T09:10:14.503Z,73.57
2019-03-04T09:11:14.499Z,73.44
2019-03-04T09:12:14.479Z,74.35
2019-03-04T09:13:14.467Z,73.33
2019-03-04T09:14:14.455Z,73.74
2019-03-04T09:15:14.450Z,73.13
2019-03-04T09:16:14.441Z,73.54
2019-03-04T09:17:14.423Z,71.29
2019-03-04T09:18:14.411Z,72.62
2019-03-04T09:19:14.403Z,73.13
2019-03-04T09:20:14.394Z,73.33
2019-03-04T09:21:14.392Z,72.75
2019-03-04T09:22:14.367Z,72.41
2019-03-04T09:23:14.356Z,73.33
2019-03-04T09:24:14.346Z,73.47
2019-03-04T09:25:14.334Z,73.68
2019-03-04T09:26:14.335Z,73.44
2019-03-04T09:27:14.313Z,72.65
2019-03-04T09:28:14.307Z,74.87
2019-03-04T09:29:14.289Z,73.23
2019-03-04T09:30:14.279Z,73.13
2019-03-04T09:31:14.277Z,72.21
2019-03-04T09:32:14.261Z,71.80
2019-03-04T09:33:14.245Z,72.21
2019-03-04T09:34:14.236Z,72.21
2019-03-04T09:35:14.225Z,72.11
2019-03-04T09:36:14.244Z,73.33
2019-03-04T09:37:14.202Z,72.58
2019-03-04T09:38:14.193Z,72.62
2019-03-04T09:39:14.180Z,71.56
2019-03-04T09:40:14.172Z,71.77
2019-03-04T09:41:14.162Z,72.58
2019-03-04T09:42:14.155Z,71.36
2019-03-04T09:43:14.137Z,71.87
2019-03-04T09:44:14.127Z,71.87
2019-03-04T09:45:14.115Z,72.28
2019-03-04T09:46:14.104Z,70.75
2019-03-04T09:47:14.102Z,71.97
2019-03-04T09:48:14.089Z,71.46
2019-03-04T09:49:14.072Z,70.95
2019-03-04T09:50:14.061Z,70.00
2019-03-04T09:51:23.843Z,69.93
2019-03-04T09:52:15.045Z,71.43
2019-03-04T09:53:14.027Z,71.77
2019-03-04T09:54:14.016Z,69.90
2019-03-04T09:55:14.010Z,70.00
2019-03-04T09:56:13.995Z,70.20
2019-03-04T09:57:13.995Z,69.69
2019-03-04T09:58:13.971Z,69.69
2019-03-04T09:59:13.960Z,69.08
2019-03-04T10:00:13.952Z,69.59
2019-03-04T10:01:13.940Z,68.26
2019-03-04T10:02:13.938Z,69.49
2019-03-04T10:03:13.915Z,69.18
2019-03-04T10:04:13.913Z,69.49
2019-03-04T10:05:13.896Z,68.98
2019-03-04T10:06:13.887Z,68.67
2019-03-04T10:07:13.887Z,69.79
2019-03-04T10:08:13.866Z,69.69
2019-03-04T10:09:13.851Z,69.69
2019-03-04T10:10:15.922Z,68.06
2019-03-04T10:11:13.833Z,69.69
2019-03-04T10:12:13.828Z,69.38
2019-03-04T10:13:13.809Z,69.59
2019-03-04T10:14:13.799Z,69.90
2019-03-04T10:15:13.785Z,69.90
2019-03-04T10:16:18.614Z,69.38
2019-03-04T10:17:14.773Z,68.47
2019-03-04T10:18:13.808Z,69.38
2019-03-04T10:19:13.748Z,68.98
2019-03-04T10:20:13.730Z,69.08
2019-03-04T10:21:13.719Z,68.57
2019-03-04T10:22:13.713Z,68.23
2019-03-04T10:23:13.705Z,68.26
2019-03-04T10:24:13.686Z,69.15
2019-03-04T10:25:13.675Z,68.88
2019-03-04T10:26:22.198Z,68.74
2019-03-04T10:27:14.653Z,67.93
2019-03-04T10:28:13.653Z,67.93
2019-03-04T10:29:13.632Z,68.84
2019-03-04T10:30:13.622Z,68.23
2019-03-04T10:31:13.620Z,67.21
2019-03-04T10:32:13.597Z,67.99
2019-03-04T10:33:13.597Z,69.73
2019-03-04T10:34:13.579Z,67.79
2019-03-04T10:35:13.566Z,67.90
2019-03-04T10:36:13.557Z,67.66
2019-03-04T10:37:13.549Z,67.66
2019-03-04T10:38:22.305Z,68.04
2019-03-04T10:39:14.522Z,68.54
2019-03-04T10:40:15.561Z,65.36
2019-03-04T10:41:13.508Z,67.22
2019-03-04T10:42:13.490Z,65.26
2019-03-04T10:43:13.490Z,64.73
2019-03-04T10:44:13.468Z,65.10
2019-03-04T10:45:13.460Z,63.88
2019-03-04T10:46:13.447Z,61.95
2019-03-04T10:47:13.436Z,63.68
2019-03-04T10:48:13.451Z,61.44
2019-03-04T10:49:13.416Z,61.78
2019-03-04T10:50:13.405Z,61.88
2019-03-04T10:51:13.391Z,62.08
2019-03-04T10:52:13.380Z,60.76
2019-03-04T10:53:13.369Z,63.91
2019-03-04T10:54:13.368Z,61.37
2019-03-04T10:55:13.347Z,62.32
2019-03-04T10:56:13.338Z,61.91
2019-03-04T10:57:13.326Z,62.32
2019-03-04T10:58:13.320Z,60.49
2019-03-04T10:59:13.315Z,60.61
2019-03-04T11:00:13.303Z,62.35
2019-03-04T11:01:13.283Z,61.02
2019-03-04T11:02:13.278Z,61.13
2019-03-04T11:03:13.262Z,61.83
2019-03-04T11:04:13.264Z,63.26
2019-03-04T11:05:13.240Z,61.53
2019-03-04T11:06:13.229Z,60.82
2019-03-04T11:07:13.219Z,60.82
2019-03-04T11:08:13.211Z,60.61
2019-03-04T11:09:13.208Z,59.80
2019-03-04T11:10:13.185Z,60.41
2019-03-04T11:11:13.177Z,61.43
2019-03-04T11:12:14.139Z,60.61
2019-03-04T11:13:13.180Z,59.70
2019-03-04T11:14:13.173Z,59.19
2019-03-04T11:15:13.132Z,58.28
2019-03-04T11:16:13.122Z,59.19
2019-03-04T11:17:13.111Z,59.19
2019-03-04T11:18:13.109Z,57.87
2019-03-04T11:19:13.096Z,57.06
2019-03-04T11:20:13.077Z,55.91
2019-03-04T11:21:13.070Z,57.43
2019-03-04T11:22:13.055Z,57.23
2019-03-04T11:23:15.021Z,55.30
2019-03-04T11:24:13.048Z,54.59
2019-03-04T11:25:13.037Z,54.90
2019-03-04T11:26:13.013Z,52.86
2019-03-04T11:27:13.000Z,54.08
2019-03-04T11:28:12.998Z,56.95
2019-03-04T11:29:13.456Z,58.76
2019-03-04T11:30:12.975Z,62.21
2019-03-04T11:31:12.964Z,68.02
2019-03-04T11:32:12.949Z,72.82
2019-03-04T11:33:12.940Z,74.36
2019-03-04T11:34:12.935Z,76.34
2019-03-04T11:35:12.916Z,77.44
2019-03-04T11:36:12.905Z,79.80
2019-03-04T11:37:12.900Z,79.93
2019-03-04T11:38:12.882Z,80.65
2019-03-04T11:39:12.903Z,80.90
2019-03-04T11:40:12.886Z,81.92
2019-03-04T11:41:12.849Z,82.75
2019-03-04T11:42:12.846Z,81.51
2019-03-04T11:43:12.827Z,82.17
2019-03-04T11:44:12.816Z,83.19
2019-03-04T11:45:12.824Z,82.99
2019-03-04T11:46:12.797Z,82.99
2019-03-04T11:47:12.784Z,84.22
2019-03-04T11:48:12.773Z,84.42
2019-03-04T11:49:12.764Z,83.91
2019-03-04T11:50:12.762Z,84.32
2019-03-04T11:51:12.738Z,84.01
2019-03-04T11:52:12.728Z,81.86
2019-03-04T11:53:12.716Z,82.47
2019-03-04T11:54:12.752Z,83.81
2019-03-04T11:55:12.701Z,84.01
2019-03-04T11:56:12.683Z,82.27
2019-03-04T11:57:12.671Z,82.37
2019-03-04T11:58:12.662Z,84.98
2019-03-04T11:59:12.650Z,84.05
2019-03-04T12:00:12.647Z,82.00
2019-03-04T12:01:12.628Z,82.71
2019-03-04T12:02:12.618Z,84.26
2019-03-04T12:03:12.608Z,84.47
2019-03-04T12:04:12.597Z,83.48
2019-03-04T12:05:12.594Z,82.41
2019-03-04T12:06:12.579Z,82.82
2019-03-04T12:07:12.565Z,83.70
2019-03-04T12:08:12.605Z,85.28
2019-03-04T12:09:12.547Z,83.95
2019-03-04T12:10:12.542Z,82.20
2019-03-04T12:11:12.521Z,84.36
2019-03-04T12:12:12.510Z,85.14
2019-03-04T12:13:12.499Z,85.04
2019-03-04T12:14:12.492Z,81.86
2019-03-04T12:15:12.486Z,82.27
2019-03-04T12:16:12.468Z,83.81
2019-03-04T12:17:12.461Z,81.76
2019-03-04T12:18:12.448Z,80.58
2019-03-04T12:19:12.437Z,79.87
2019-03-04T12:20:12.433Z,81.62
2019-03-04T12:21:12.417Z,78.64
2019-03-04T12:22:12.404Z,79.93
2019-03-04T12:23:12.394Z,80.04
2019-03-04T12:24:12.383Z,80.35
2019-03-04T12:25:12.383Z,78.81
2019-03-04T12:26:12.361Z,78.56
2019-03-04T12:27:12.351Z,76.86
2019-03-04T12:28:12.341Z,78.05
2019-03-04T12:29:12.336Z,79.04
2019-03-04T12:30:12.327Z,78.53
2019-03-04T12:31:12.321Z,76.75
2019-03-04T12:32:12.298Z,75.52
2019-03-04T12:33:12.288Z,72.34
2019-03-04T12:34:12.276Z,71.90
2019-03-04T12:35:12.274Z,75.69
2019-03-04T12:36:12.254Z,73.54
2019-03-04T12:37:12.243Z,71.97
2019-03-04T12:38:12.234Z,70.06
2019-03-04T12:39:12.243Z,69.85
2019-03-04T12:40:12.219Z,72.31
2019-03-04T12:41:12.206Z,73.03
2019-03-04T12:42:12.192Z,74.43
2019-03-04T12:43:12.180Z,72.72
2019-03-04T12:44:12.170Z,72.11
2019-03-04T12:45:12.181Z,71.86
2019-03-04T12:46:12.147Z,71.25
2019-03-04T12:47:12.136Z,73.40
2019-03-04T12:48:12.125Z,70.94
2019-03-04T12:49:12.116Z,70.84
2019-03-04T12:50:12.101Z,71.62
2019-03-04T12:51:12.098Z,73.44
2019-03-04T12:52:12.081Z,71.39